EGHIEGBB [BE001]

Guest
Details From EGHI - Southampton
To EGBB - Birmingham
Flight Number BE001
Tags Real Commercial Decoded
Created
Modified
Stats Distance 122 nm / 226 km
Max Altitude 0 ft / 0 m
Waypoints 4
Social Downloads 11
Likes 0
Share VATSIM

Download

Looking for another format? Having issues loading an existing format? Contact us
Advertisement - Login to hide

Notes

Decoded

Route

EGHI LON HON EGBB

ID Type Via Altitude Latitude Longitude Leg Dist Tot Dist Heading (true) Name
O EGHI APT - 0 ft / 0 m 50.94295˚ -1.36088˚ - 0 nm - -
LON VOR - 0 ft / 0 m 51.48722˚ -0.46667˚ 46 nm 46 nm 45° / 46° LONDON VOR-DME
HON VOR - 0 ft / 0 m 52.35667˚ -1.66361˚ 68 nm 115 nm 320° / 319° HONILEY VOR-DME
O EGBB APT - 0 ft / 0 m 52.45113˚ -1.75493˚ 6 nm 121 nm 330° / 329° -

Altitude Profile

Advertisement - Login to hide

EGHI

Details ICAO EGHI (SOU)
Name Southampton
Region United Kingdom
Timezone Europe/London (UTC+0.0)
Stats Elevation 44 ft / 13 m (AMSL)
Location 50.950255° -1.356806°
Runways 1
Magnetic Variation 0.812° W

METAR

EGHI 162120Z VRB01KT CAVOK 03/02 Q1023

Decode

TAF

Not found

Departure Runways

ID Width Length Bearing (true) Bearing (mag) Surface Threshold Offset Overrun Length
02 121 ft / 37 m 5,650 ft / 1,722 m 19.33° 20.14° Asphalt 240 ft / 73 m 0 ft / 0 m
20 121 ft / 37 m 5,650 ft / 1,722 m 199.34° 200.15° Asphalt 144 ft / 44 m 0 ft / 0 m

EGBB

Details ICAO EGBB (BHX)
Name Birmingham
Region United Kingdom
Timezone Europe/London (UTC+0.0)
Stats Elevation 327 ft / 100 m (AMSL)
Location 52.455966° -1.750378°
Runways 1
Magnetic Variation 1.139° W

METAR

EGBB 162120Z VRB02KT 9999 SCT008 02/02 Q1022

Decode

TAF

TAF EGBB 161704Z 1618/1718 VRB02KT 9999 SCT020 PROB30 TEMPO 1618/1621 5000 BR BKN010 PROB30 1621/1707 0300 FG FZFG VV/// PROB40 TEMPO 1707/1711 4000 BR BKN006 BECMG 1711/1714 21010KT 6000 -RADZ BKN006 TEMPO 1711/1718 3000 RADZ BKN004 BECMG 1715/1718 27012KT

Decode

Destination Runways

ID Width Length Bearing (true) Bearing (mag) Surface Threshold Offset Overrun Length
15 151 ft / 46 m 8,477 ft / 2,584 m 145.87° 147.01° Asphalt 925 ft / 282 m 0 ft / 0 m
33 151 ft / 46 m 8,477 ft / 2,584 m 325.89° 327.03° Asphalt 958 ft / 292 m 0 ft / 0 m

Approach Navaids

Runway Type Ident Frequency Range Bearing (true) Bearing (mag) Slope Elevation
15 Localiser IBIR 110.10 MHz 18 nm / 33 km 145.89° 147.03° - 325 ft / 99 m (AMSL)
15 Glidescope IBIR 110.10 MHz 10 nm / 19 km 145.88° 147.02° 3.00° 325 ft / 99 m (AMSL)
15 DME IBIR 110.10 MHz 18 nm / 33 km - - - 349 ft / 106 m (AMSL)
33 Localiser IBM 110.10 MHz 18 nm / 33 km 325.87° 327.01° - 325 ft / 99 m (AMSL)
33 Glidescope IBM 110.10 MHz 10 nm / 19 km 325.88° 327.02° 3.00° 325 ft / 99 m (AMSL)
33 DME IBM 110.10 MHz 18 nm / 33 km - - - 327 ft / 100 m (AMSL)

Popular Alternatives